createdAt,value
2022-12-12T00:12:23.282Z,955.79
2022-12-12T00:27:25.657Z,955.94
2022-12-12T00:42:27.934Z,956.16
2022-12-12T00:57:30.122Z,956.3
2022-12-12T01:12:32.347Z,956.33
2022-12-12T01:27:34.567Z,956.23
2022-12-12T01:42:36.765Z,956.17
2022-12-12T01:57:38.995Z,956.14
2022-12-12T02:12:41.249Z,956.31
2022-12-12T02:27:43.440Z,956.53
2022-12-12T02:42:45.678Z,956.57
2022-12-12T02:57:47.935Z,956.54
2022-12-12T03:12:50.162Z,956.66
2022-12-12T03:27:52.358Z,956.77
2022-12-12T03:42:54.576Z,956.95
2022-12-12T03:57:57.105Z,957.09
2022-12-12T04:12:59.792Z,957.11
2022-12-12T04:28:03.212Z,957.2
2022-12-12T04:43:05.489Z,957.24
2022-12-12T04:58:07.730Z,957.29
2022-12-12T05:13:09.925Z,957.48
2022-12-12T05:28:12.939Z,957.59
2022-12-12T05:43:15.309Z,957.68
2022-12-12T05:58:17.542Z,957.71
2022-12-12T06:13:19.751Z,957.91
2022-12-12T06:28:21.937Z,958.05
2022-12-12T06:43:24.141Z,958.39
2022-12-12T06:58:26.455Z,958.45
2022-12-12T07:13:28.639Z,958.42
2022-12-12T07:28:30.961Z,958.42
2022-12-12T07:43:35.290Z,958.46
2022-12-12T07:58:39.516Z,958.43
2022-12-12T08:13:41.900Z,958.48
2022-12-12T08:28:44.161Z,958.52
2022-12-12T08:43:46.375Z,958.63
2022-12-12T08:58:48.622Z,958.68
2022-12-12T09:13:50.848Z,958.71
2022-12-12T09:28:53.080Z,958.91
2022-12-12T09:43:55.279Z,959.18
2022-12-12T09:58:57.656Z,959.27
2022-12-12T10:13:59.892Z,959.3
2022-12-12T10:29:02.246Z,959.43
2022-12-12T10:44:04.525Z,959.56
2022-12-12T10:59:06.942Z,959.64
2022-12-12T11:14:09.153Z,959.85
2022-12-12T11:29:11.401Z,959.86
2022-12-12T11:44:18.626Z,960.07
2022-12-12T11:59:22.455Z,960.23
2022-12-12T12:14:24.676Z,960.28
2022-12-12T12:29:26.919Z,960.35
2022-12-12T12:44:29.076Z,960.31
2022-12-12T12:59:31.325Z,960.48
2022-12-12T13:14:33.547Z,960.53
2022-12-12T13:29:35.738Z,960.64
2022-12-12T13:44:37.957Z,960.77
2022-12-12T13:59:40.169Z,960.89
2022-12-12T14:14:42.401Z,961.03
2022-12-12T14:29:44.589Z,961.07
2022-12-12T14:44:50.673Z,961.2
2022-12-12T14:59:53.221Z,961.33
2022-12-12T15:14:55.391Z,961.46
2022-12-12T15:29:57.630Z,961.71
2022-12-12T15:45:00.051Z,961.93
2022-12-12T16:00:02.392Z,962.12
2022-12-12T16:15:04.839Z,962.3
2022-12-12T16:30:07.097Z,962.44
2022-12-12T16:45:09.514Z,962.51
2022-12-12T17:00:12.045Z,962.47
2022-12-12T17:15:14.545Z,962.59
2022-12-12T17:30:17.089Z,962.81
2022-12-12T17:45:19.580Z,962.84
2022-12-12T18:00:21.856Z,962.91
2022-12-12T18:15:24.208Z,962.96
2022-12-12T18:30:26.421Z,962.99
2022-12-12T18:45:28.818Z,962.96
2022-12-12T19:00:31.080Z,962.85
2022-12-12T19:15:33.472Z,962.87
2022-12-12T19:30:35.846Z,962.9
2022-12-12T19:45:38.088Z,962.9
2022-12-12T20:00:40.327Z,962.92
2022-12-12T20:15:42.726Z,962.88
2022-12-12T20:30:47.638Z,962.74
2022-12-12T20:45:51.837Z,962.74
2022-12-12T21:00:54.113Z,962.88
2022-12-12T21:15:56.361Z,962.87
2022-12-12T21:30:58.676Z,962.98
2022-12-12T21:46:01.006Z,963.02
2022-12-12T22:01:03.197Z,962.96
2022-12-12T22:16:05.574Z,962.91
2022-12-12T22:31:07.888Z,963.08
2022-12-12T22:46:10.181Z,963.27
2022-12-12T23:01:12.448Z,963.32
2022-12-12T23:16:14.802Z,963.45
2022-12-12T23:31:17.122Z,963.63
2022-12-12T23:46:19.542Z,963.7
